Time;durP1;ratioP1;P1;durP2;ratioP2;P2;SDS_P1;SDS_P2;PMS_P1;PMS_P2;Temp;Humidity;BMP_temperature;BMP_pressure;BME280_temperature;BME280_humidity;BME280_pressure;Samples;Min_cycle;Max_cycle;Signal;HPM_P1;HPM_P2
2024/01/18 00:01:41;;;;;;;45.23;20.67;;;;;;;;;;5050587;28;20311;-64
2024/01/18 00:04:07;;;;;;;41.80;21.40;;;;;;;;;;5051440;28;20047;-64
2024/01/18 00:06:33;;;;;;;49.43;21.93;;;;;;;;;;5050010;28;20045;-65
2024/01/18 00:08:59;;;;;;;32.77;19.00;;;;;;;;;;5050916;28;20386;-64
2024/01/18 00:11:25;;;;;;;39.90;22.77;;;;;;;;;;5036480;28;20375;-64
2024/01/18 00:13:51;;;;;;;41.27;20.63;;;;;;;;;;5050573;28;20053;-64
2024/01/18 00:16:17;;;;;;;38.97;21.37;;;;;;;;;;5050806;28;20358;-64
2024/01/18 00:18:43;;;;;;;40.30;22.87;;;;;;;;;;5049756;28;20846;-64
2024/01/18 00:21:09;;;;;;;41.50;20.67;;;;;;;;;;5049765;28;20423;-65
2024/01/18 00:23:35;;;;;;;38.67;21.77;;;;;;;;;;5049943;28;20280;-65
2024/01/18 00:26:02;;;;;;;31.50;17.23;;;;;;;;;;5051083;28;20819;-64
2024/01/18 00:28:28;;;;;;;35.07;18.67;;;;;;;;;;5050518;28;20063;-65
2024/01/18 00:30:54;;;;;;;37.07;17.73;;;;;;;;;;5049691;28;20307;-65
2024/01/18 00:33:20;;;;;;;31.53;16.40;;;;;;;;;;5050094;28;20041;-65
2024/01/18 00:35:46;;;;;;;32.53;15.33;;;;;;;;;;5050292;28;20295;-65
2024/01/18 00:38:12;;;;;;;30.33;15.57;;;;;;;;;;5049743;28;20045;-65
2024/01/18 00:40:38;;;;;;;23.60;13.97;;;;;;;;;;5050029;28;20276;-64
2024/01/18 00:43:05;;;;;;;23.77;12.53;;;;;;;;;;5050188;28;20950;-64
2024/01/18 00:45:31;;;;;;;23.53;11.60;;;;;;;;;;5066486;28;20553;-64
2024/01/18 00:47:57;;;;;;;29.03;11.97;;;;;;;;;;5050761;28;21032;-64
2024/01/18 00:50:23;;;;;;;24.60;11.93;;;;;;;;;;5049571;28;20318;-64
2024/01/18 00:52:49;;;;;;;18.10;10.30;;;;;;;;;;5047792;28;20844;-64
2024/01/18 00:55:15;;;;;;;19.70;9.60;;;;;;;;;;5047670;28;20044;-64
2024/01/18 00:57:42;;;;;;;17.27;9.23;;;;;;;;;;5048772;28;20094;-65
2024/01/18 01:00:08;;;;;;;16.20;9.17;;;;;;;;;;5047522;28;20307;-64
2024/01/18 01:02:34;;;;;;;27.10;11.27;;;;;;;;;;5047684;28;20725;-65
2024/01/18 01:05:00;;;;;;;19.40;9.73;;;;;;;;;;5047295;28;20311;-64
2024/01/18 01:07:26;;;;;;;20.20;10.80;;;;;;;;;;5049292;28;20796;-64
2024/01/18 01:09:52;;;;;;;17.73;10.63;;;;;;;;;;5049775;28;20319;-65
2024/01/18 01:12:18;;;;;;;20.20;10.37;;;;;;;;;;5048600;28;20291;-64
2024/01/18 01:14:44;;;;;;;21.73;9.07;;;;;;;;;;5049427;28;20282;-64
2024/01/18 01:17:10;;;;;;;16.20;9.63;;;;;;;;;;5050969;28;20449;-64
2024/01/18 01:19:37;;;;;;;19.20;10.30;;;;;;;;;;5069953;28;20279;-64
2024/01/18 01:22:03;;;;;;;18.70;9.43;;;;;;;;;;5048020;28;20291;-65
2024/01/18 01:24:29;;;;;;;21.50;9.13;;;;;;;;;;5048072;28;20327;-64
2024/01/18 01:26:56;;;;;;;23.60;10.83;;;;;;;;;;5048944;28;20783;-65
2024/01/18 01:29:22;;;;;;;19.47;9.40;;;;;;;;;;5049591;28;20060;-64
2024/01/18 01:31:48;;;;;;;19.97;10.07;;;;;;;;;;5047659;28;20283;-65
2024/01/18 01:34:14;;;;;;;19.47;10.00;;;;;;;;;;5050651;28;20282;-65
2024/01/18 01:36:40;;;;;;;16.87;10.20;;;;;;;;;;5069471;28;20281;-65
2024/01/18 01:39:06;;;;;;;21.33;10.10;;;;;;;;;;5065066;28;20111;-65
2024/01/18 01:41:32;;;;;;;16.97;9.37;;;;;;;;;;5048252;28;20075;-64
2024/01/18 01:43:59;;;;;;;21.37;11.10;;;;;;;;;;5048838;28;20060;-64
2024/01/18 01:46:26;;;;;;;18.07;9.20;;;;;;;;;;5049159;28;20294;-64
2024/01/18 01:48:53;;;;;;;17.60;10.17;;;;;;;;;;5049142;28;20359;-64
2024/01/18 01:51:19;;;;;;;17.67;8.10;;;;;;;;;;5049753;28;20310;-64
2024/01/18 01:53:45;;;;;;;20.40;8.57;;;;;;;;;;5048643;28;20310;-64
2024/01/18 01:56:11;;;;;;;14.63;7.67;;;;;;;;;;5049220;28;20077;-65
2024/01/18 01:58:37;;;;;;;25.67;9.07;;;;;;;;;;5047662;28;20858;-65
2024/01/18 02:01:03;;;;;;;21.57;8.90;;;;;;;;;;5048148;28;20080;-64
2024/01/18 02:03:29;;;;;;;15.23;8.80;;;;;;;;;;5048994;28;20326;-64
2024/01/18 02:05:56;;;;;;;17.10;8.90;;;;;;;;;;5047671;28;20288;-64
2024/01/18 02:08:22;;;;;;;14.73;9.10;;;;;;;;;;5052206;28;20282;-65
2024/01/18 02:10:48;;;;;;;18.30;8.97;;;;;;;;;;5068115;28;20664;-64
2024/01/18 02:13:15;;;;;;;21.60;8.77;;;;;;;;;;5068639;28;20765;-64
2024/01/18 02:15:42;;;;;;;24.33;12.03;;;;;;;;;;5049321;28;20291;-65
2024/01/18 02:18:08;;;;;;;22.80;10.43;;;;;;;;;;5048734;28;20283;-65
2024/01/18 02:20:34;;;;;;;16.87;10.23;;;;;;;;;;5048438;28;20284;-65
2024/01/18 02:23:02;;;;;;;21.03;9.83;;;;;;;;;;5048774;28;20041;-64
2024/01/18 02:25:28;;;;;;;20.30;9.73;;;;;;;;;;5051447;28;20052;-65
2024/01/18 02:27:57;;;;;;;19.43;10.57;;;;;;;;;;5064610;28;20288;-65
2024/01/18 02:30:23;;;;;;;18.63;10.30;;;;;;;;;;5048053;28;20343;-65
2024/01/18 02:32:49;;;;;;;18.03;9.70;;;;;;;;;;5046573;28;20296;-65
2024/01/18 02:35:16;;;;;;;22.77;10.10;;;;;;;;;;5046596;28;20338;-65
2024/01/18 02:37:42;;;;;;;18.27;9.80;;;;;;;;;;5034753;28;20801;-64
2024/01/18 02:40:08;;;;;;;14.50;8.37;;;;;;;;;;5035817;28;20296;-64
2024/01/18 02:42:34;;;;;;;16.50;8.77;;;;;;;;;;5048016;28;20318;-64
2024/01/18 02:45:03;;;;;;;15.67;9.00;;;;;;;;;;5048235;28;20318;-64
2024/01/18 02:47:29;;;;;;;18.10;8.50;;;;;;;;;;5047985;28;20287;-64
2024/01/18 02:49:56;;;;;;;16.87;8.73;;;;;;;;;;5047276;28;20311;-64
2024/01/18 02:52:22;;;;;;;23.57;10.03;;;;;;;;;;5047813;28;20290;-64
2024/01/18 02:54:48;;;;;;;18.03;9.40;;;;;;;;;;5047752;28;20315;-64
2024/01/18 02:57:14;;;;;;;17.53;9.90;;;;;;;;;;5047837;28;20376;-64
2024/01/18 02:59:40;;;;;;;22.90;10.67;;;;;;;;;;5047235;28;20507;-64
2024/01/18 03:02:06;;;;;;;17.60;8.73;;;;;;;;;;5048005;28;20048;-64
2024/01/18 03:04:32;;;;;;;20.27;9.70;;;;;;;;;;5048063;28;20037;-65
2024/01/18 03:06:58;;;;;;;18.53;9.53;;;;;;;;;;5046948;28;20646;-64
2024/01/18 03:09:24;;;;;;;21.83;9.70;;;;;;;;;;5047476;28;20290;-64
2024/01/18 03:11:50;;;;;;;19.90;9.10;;;;;;;;;;5047407;28;20286;-64
2024/01/18 03:14:16;;;;;;;28.17;10.37;;;;;;;;;;5047732;28;20079;-64
2024/01/18 03:16:42;;;;;;;22.63;9.73;;;;;;;;;;5046690;28;20041;-64
2024/01/18 03:19:10;;;;;;;21.50;9.87;;;;;;;;;;5047108;28;20817;-64
2024/01/18 03:21:36;;;;;;;21.97;10.20;;;;;;;;;;5046577;28;20341;-64
2024/01/18 03:24:02;;;;;;;19.07;9.80;;;;;;;;;;5047323;28;20319;-64
2024/01/18 03:26:28;;;;;;;20.70;9.10;;;;;;;;;;5047353;28;20852;-64
2024/01/18 03:28:55;;;;;;;18.60;8.73;;;;;;;;;;5047660;28;20382;-65
2024/01/18 03:31:21;;;;;;;15.13;8.03;;;;;;;;;;5047029;28;20499;-65
2024/01/18 03:33:47;;;;;;;16.30;8.77;;;;;;;;;;5047547;28;20298;-65
2024/01/18 03:36:13;;;;;;;17.03;8.77;;;;;;;;;;5047294;28;20288;-64
2024/01/18 03:38:39;;;;;;;16.87;9.07;;;;;;;;;;5047315;28;20291;-64
2024/01/18 03:41:05;;;;;;;18.40;8.80;;;;;;;;;;5047265;28;20148;-64
2024/01/18 03:43:30;;;;;;;17.00;9.30;;;;;;;;;;5047240;28;20044;-64
2024/01/18 03:45:56;;;;;;;15.97;8.20;;;;;;;;;;5047340;28;20060;-64
2024/01/18 03:48:22;;;;;;;22.97;7.87;;;;;;;;;;5050510;28;20052;-64
2024/01/18 03:50:48;;;;;;;15.27;7.77;;;;;;;;;;5051003;28;20061;-64
2024/01/18 03:53:14;;;;;;;19.20;8.60;;;;;;;;;;5049880;28;20411;-65
2024/01/18 03:55:41;;;;;;;14.60;7.27;;;;;;;;;;5049102;28;20044;-65
2024/01/18 03:58:07;;;;;;;17.93;8.70;;;;;;;;;;5048740;28;20409;-64
2024/01/18 04:00:33;;;;;;;20.83;8.60;;;;;;;;;;5049816;28;20303;-64
2024/01/18 04:02:59;;;;;;;18.87;7.80;;;;;;;;;;5050917;28;20284;-64
2024/01/18 04:05:25;;;;;;;16.33;7.80;;;;;;;;;;5048367;28;20297;-64
2024/01/18 04:07:51;;;;;;;16.43;7.97;;;;;;;;;;5048012;28;21137;-65
2024/01/18 04:10:17;;;;;;;17.60;8.07;;;;;;;;;;5049384;28;20132;-64
2024/01/18 04:12:44;;;;;;;20.00;7.80;;;;;;;;;;5051059;28;20330;-65
2024/01/18 04:15:10;;;;;;;16.03;7.33;;;;;;;;;;5051099;28;20654;-65
2024/01/18 04:17:37;;;;;;;15.43;6.97;;;;;;;;;;5049719;28;20300;-64
2024/01/18 04:20:05;;;;;;;12.47;5.60;;;;;;;;;;5045945;28;20379;-64
2024/01/18 04:22:31;;;;;;;14.60;7.50;;;;;;;;;;5043623;28;20574;-64
2024/01/18 04:24:57;;;;;;;14.53;6.33;;;;;;;;;;5047757;28;20303;-64
2024/01/18 04:27:23;;;;;;;12.77;5.33;;;;;;;;;;5050522;28;20349;-65
2024/01/18 04:29:49;;;;;;;8.87;5.00;;;;;;;;;;5050149;28;20800;-64
2024/01/18 04:32:15;;;;;;;15.30;5.30;;;;;;;;;;5049843;28;20132;-65
2024/01/18 04:34:42;;;;;;;8.57;4.10;;;;;;;;;;5049658;28;20044;-65
2024/01/18 04:37:09;;;;;;;6.53;3.60;;;;;;;;;;5050046;28;20140;-65
2024/01/18 04:39:35;;;;;;;11.30;4.27;;;;;;;;;;5048366;28;20800;-64
2024/01/18 04:42:01;;;;;;;12.17;5.17;;;;;;;;;;5050138;28;20724;-65
2024/01/18 04:44:27;;;;;;;11.07;5.27;;;;;;;;;;5048542;28;20376;-64
2024/01/18 04:46:53;;;;;;;8.53;3.17;;;;;;;;;;5049042;28;20052;-65
2024/01/18 04:49:19;;;;;;;4.23;2.10;;;;;;;;;;5050046;28;20283;-64
2024/01/18 04:51:45;;;;;;;5.20;1.57;;;;;;;;;;5049556;28;20156;-64
2024/01/18 04:54:11;;;;;;;4.70;1.60;;;;;;;;;;5049932;28;20044;-64
2024/01/18 04:56:37;;;;;;;4.20;1.60;;;;;;;;;;5048710;28;20453;-64
2024/01/18 04:59:04;;;;;;;5.60;1.33;;;;;;;;;;5047776;28;20057;-65
2024/01/18 05:01:30;;;;;;;5.90;1.40;;;;;;;;;;5049007;28;20635;-65
2024/01/18 05:03:56;;;;;;;5.67;1.63;;;;;;;;;;5049972;28;20370;-65
2024/01/18 05:06:22;;;;;;;7.43;1.57;;;;;;;;;;5048990;28;20268;-65
2024/01/18 05:08:48;;;;;;;4.17;1.37;;;;;;;;;;5048371;28;20722;-65
2024/01/18 05:11:14;;;;;;;3.83;1.23;;;;;;;;;;5049581;28;20402;-65
2024/01/18 05:13:40;;;;;;;4.70;1.77;;;;;;;;;;5049623;28;20055;-65
2024/01/18 05:16:07;;;;;;;3.67;1.30;;;;;;;;;;5047996;28;20045;-65
2024/01/18 05:18:33;;;;;;;10.43;1.90;;;;;;;;;;5049436;28;20100;-64
2024/01/18 05:20:59;;;;;;;4.37;1.53;;;;;;;;;;5049343;28;20804;-65
2024/01/18 05:23:25;;;;;;;7.20;1.90;;;;;;;;;;5049811;28;20318;-65
2024/01/18 05:25:51;;;;;;;6.83;2.00;;;;;;;;;;5048571;28;20302;-65
2024/01/18 05:28:17;;;;;;;8.80;1.40;;;;;;;;;;5047590;28;20303;-65
2024/01/18 05:30:43;;;;;;;6.47;1.60;;;;;;;;;;5048764;28;20311;-65
2024/01/18 05:33:09;;;;;;;9.17;1.63;;;;;;;;;;5048276;28;20053;-65
2024/01/18 05:35:35;;;;;;;9.47;1.90;;;;;;;;;;5049132;28;20288;-65
2024/01/18 05:38:01;;;;;;;5.50;1.57;;;;;;;;;;5049349;28;20053;-65
2024/01/18 05:40:27;;;;;;;4.13;1.60;;;;;;;;;;5048462;28;20064;-64
2024/01/18 05:42:53;;;;;;;7.67;2.57;;;;;;;;;;5049273;28;20048;-65
2024/01/18 05:45:19;;;;;;;7.57;2.20;;;;;;;;;;5048836;28;20057;-65
2024/01/18 05:47:45;;;;;;;7.40;1.87;;;;;;;;;;5048064;28;20887;-65
2024/01/18 05:50:11;;;;;;;5.80;2.03;;;;;;;;;;5048974;28;20100;-64
2024/01/18 05:52:37;;;;;;;7.47;2.03;;;;;;;;;;5048961;28;20307;-64
2024/01/18 05:55:04;;;;;;;13.83;2.40;;;;;;;;;;5048622;28;20288;-65
2024/01/18 05:57:30;;;;;;;8.43;2.00;;;;;;;;;;5048553;28;20291;-64
2024/01/18 05:59:56;;;;;;;6.23;2.00;;;;;;;;;;5048009;28;20295;-64
2024/01/18 06:02:22;;;;;;;5.30;2.27;;;;;;;;;;5047427;28;20851;-65
2024/01/18 06:04:48;;;;;;;7.07;2.30;;;;;;;;;;5048415;28;20280;-64
2024/01/18 06:07:14;;;;;;;5.10;1.87;;;;;;;;;;5048094;28;20037;-65
2024/01/18 06:09:40;;;;;;;7.30;2.03;;;;;;;;;;5047605;28;20127;-64
2024/01/18 06:12:06;;;;;;;5.00;2.10;;;;;;;;;;5046945;28;20044;-64
2024/01/18 06:14:32;;;;;;;10.03;2.10;;;;;;;;;;5048727;28;20284;-65
2024/01/18 06:16:58;;;;;;;8.27;2.57;;;;;;;;;;5048480;28;20288;-64
2024/01/18 06:19:24;;;;;;;8.53;2.70;;;;;;;;;;5048224;28;20627;-65
2024/01/18 06:21:50;;;;;;;8.80;3.17;;;;;;;;;;5048536;28;20087;-65
2024/01/18 06:24:16;;;;;;;14.63;5.30;;;;;;;;;;5048473;28;20053;-64
2024/01/18 06:26:42;;;;;;;11.53;3.33;;;;;;;;;;5047974;28;20036;-65
2024/01/18 06:29:09;;;;;;;8.30;3.30;;;;;;;;;;5046323;28;20467;-65
2024/01/18 06:31:35;;;;;;;7.60;2.50;;;;;;;;;;5047279;28;20757;-65
2024/01/18 06:34:01;;;;;;;11.03;2.87;;;;;;;;;;5047014;28;20284;-64
2024/01/18 06:36:27;;;;;;;7.13;2.63;;;;;;;;;;5048237;28;20353;-64
2024/01/18 06:38:53;;;;;;;7.90;2.23;;;;;;;;;;5048021;28;20764;-64
2024/01/18 06:41:19;;;;;;;5.97;2.23;;;;;;;;;;5048166;28;20581;-64
2024/01/18 06:43:46;;;;;;;8.83;1.80;;;;;;;;;;5048284;28;20037;-64
2024/01/18 06:46:16;;;;;;;7.17;2.03;;;;;;;;;;5047938;28;20040;-64
2024/01/18 06:48:42;;;;;;;12.93;2.50;;;;;;;;;;5048138;28;20689;-64
2024/01/18 06:51:08;;;;;;;8.90;1.80;;;;;;;;;;5046786;28;20899;-64
2024/01/18 06:53:34;;;;;;;19.87;4.27;;;;;;;;;;5047966;28;20890;-64
2024/01/18 06:56:01;;;;;;;6.00;2.00;;;;;;;;;;5048415;28;20287;-64
2024/01/18 06:58:27;;;;;;;9.87;2.70;;;;;;;;;;5048105;28;20290;-64
2024/01/18 07:00:53;;;;;;;12.77;4.90;;;;;;;;;;5045848;28;20307;-64
2024/01/18 07:03:19;;;;;;;7.87;3.30;;;;;;;;;;5047664;28;20095;-64
2024/01/18 07:05:44;;;;;;;7.93;3.00;;;;;;;;;;5048077;28;20049;-65
2024/01/18 07:08:11;;;;;;;13.57;3.20;;;;;;;;;;5047222;28;20037;-64
2024/01/18 07:10:37;;;;;;;7.67;2.23;;;;;;;;;;5047584;28;20051;-64
2024/01/18 07:13:03;;;;;;;9.77;2.50;;;;;;;;;;5048162;28;20272;-64
2024/01/18 07:15:29;;;;;;;3.83;1.67;;;;;;;;;;5047234;28;20286;-64
2024/01/18 07:17:55;;;;;;;11.40;2.53;;;;;;;;;;5047662;28;20276;-64
2024/01/18 07:20:21;;;;;;;5.40;2.57;;;;;;;;;;5047829;28;20037;-64
2024/01/18 07:22:47;;;;;;;8.93;3.03;;;;;;;;;;5050092;28;20287;-64
2024/01/18 07:25:13;;;;;;;11.33;2.43;;;;;;;;;;5051268;28;20337;-64
2024/01/18 07:27:39;;;;;;;5.13;1.97;;;;;;;;;;5050852;28;20195;-65
2024/01/18 07:30:06;;;;;;;7.83;3.13;;;;;;;;;;5050966;28;20346;-64
2024/01/18 07:32:33;;;;;;;8.47;2.60;;;;;;;;;;5051829;28;20287;-64
2024/01/18 07:35:00;;;;;;;5.87;2.10;;;;;;;;;;5057469;28;20296;-64
2024/01/18 07:37:27;;;;;;;9.10;2.13;;;;;;;;;;5031839;28;20295;-64
2024/01/18 07:39:53;;;;;;;10.40;2.70;;;;;;;;;;5031618;28;20288;-64
2024/01/18 07:42:19;;;;;;;5.40;2.17;;;;;;;;;;5029746;28;20283;-64
2024/01/18 07:44:46;;;;;;;9.40;3.07;;;;;;;;;;5031032;28;20057;-64
2024/01/18 07:47:12;;;;;;;4.60;2.13;;;;;;;;;;5046655;28;20053;-64
2024/01/18 07:49:42;;;;;;;15.43;2.67;;;;;;;;;;5043950;28;20303;-64
2024/01/18 07:52:09;;;;;;;11.87;2.20;;;;;;;;;;5050984;28;20290;-64
2024/01/18 07:54:34;;;;;;;7.17;2.47;;;;;;;;;;5050898;28;20286;-64
2024/01/18 07:57:00;;;;;;;17.40;4.07;;;;;;;;;;5049058;28;20295;-64
2024/01/18 07:59:27;;;;;;;7.13;2.10;;;;;;;;;;5050000;28;20033;-64
2024/01/18 08:01:54;;;;;;;5.87;2.63;;;;;;;;;;5033351;28;20778;-64
2024/01/18 08:04:20;;;;;;;5.13;2.40;;;;;;;;;;5030910;28;20281;-64
2024/01/18 08:06:46;;;;;;;8.60;2.23;;;;;;;;;;5046861;28;20311;-64
2024/01/18 08:09:12;;;;;;;5.53;2.20;;;;;;;;;;5052392;28;20280;-65
2024/01/18 08:11:39;;;;;;;11.90;2.60;;;;;;;;;;5050297;28;20303;-64
2024/01/18 08:14:05;;;;;;;5.63;2.73;;;;;;;;;;5050769;28;20792;-64
2024/01/18 08:16:31;;;;;;;12.30;4.30;;;;;;;;;;5050779;28;20334;-64
2024/01/18 08:18:58;;;;;;;13.83;3.97;;;;;;;;;;5050960;28;20291;-64
2024/01/18 08:21:24;;;;;;;9.33;3.57;;;;;;;;;;5050608;28;20287;-64
2024/01/18 08:23:50;;;;;;;14.57;4.43;;;;;;;;;;5049945;28;20283;-64
2024/01/18 08:26:16;;;;;;;13.40;3.30;;;;;;;;;;5050533;28;20049;-64
2024/01/18 08:28:43;;;;;;;9.07;3.17;;;;;;;;;;5050337;28;20295;-64
2024/01/18 08:31:09;;;;;;;6.97;2.90;;;;;;;;;;5049923;28;20742;-64
2024/01/18 08:33:36;;;;;;;10.10;3.33;;;;;;;;;;5047636;28;20299;-64
2024/01/18 08:36:02;;;;;;;7.67;3.00;;;;;;;;;;5048178;28;20282;-65
2024/01/18 08:38:28;;;;;;;8.73;3.33;;;;;;;;;;5046069;28;20280;-64
2024/01/18 08:40:54;;;;;;;7.33;2.93;;;;;;;;;;5049938;28;20723;-64
2024/01/18 08:43:26;;;;;;;9.43;3.07;;;;;;;;;;5049280;28;20129;-64
2024/01/18 08:45:52;;;;;;;7.83;4.00;;;;;;;;;;5048755;28;20299;-64
2024/01/18 08:48:18;;;;;;;8.40;3.47;;;;;;;;;;5049458;28;20295;-64
2024/01/18 08:50:44;;;;;;;7.07;2.97;;;;;;;;;;5048639;28;20601;-64
2024/01/18 08:53:10;;;;;;;10.00;2.80;;;;;;;;;;5048191;28;20292;-64
2024/01/18 08:55:38;;;;;;;8.50;2.50;;;;;;;;;;5049296;28;20128;-64
2024/01/18 08:58:04;;;;;;;8.50;2.37;;;;;;;;;;5048324;28;20299;-64
2024/01/18 09:00:30;;;;;;;5.93;2.83;;;;;;;;;;5047916;28;20869;-64
2024/01/18 09:02:56;;;;;;;5.87;2.50;;;;;;;;;;5042040;28;20382;-64
2024/01/18 09:05:22;;;;;;;7.37;2.37;;;;;;;;;;5048606;28;20361;-64
2024/01/18 09:07:48;;;;;;;5.10;2.27;;;;;;;;;;5048944;28;20283;-64
2024/01/18 09:10:15;;;;;;;6.07;2.40;;;;;;;;;;5048539;28;20412;-64
2024/01/18 09:12:41;;;;;;;6.03;2.43;;;;;;;;;;5048454;28;20324;-64
2024/01/18 09:15:07;;;;;;;8.80;2.43;;;;;;;;;;5049383;28;20293;-64
2024/01/18 09:17:34;;;;;;;6.50;2.60;;;;;;;;;;5047366;28;20880;-64
2024/01/18 09:20:00;;;;;;;4.57;1.90;;;;;;;;;;5047533;28;20864;-64
2024/01/18 09:22:26;;;;;;;6.97;2.70;;;;;;;;;;5047656;28;20284;-64
2024/01/18 09:24:52;;;;;;;4.03;2.40;;;;;;;;;;5047069;28;20313;-64
2024/01/18 09:27:18;;;;;;;10.43;3.80;;;;;;;;;;5047884;28;20291;-64
2024/01/18 09:29:44;;;;;;;7.60;2.27;;;;;;;;;;5048189;28;20797;-64
2024/01/18 09:32:10;;;;;;;6.10;2.33;;;;;;;;;;5047989;28;20120;-64
2024/01/18 09:34:36;;;;;;;6.03;2.63;;;;;;;;;;5048528;28;20423;-64
2024/01/18 09:37:02;;;;;;;5.97;2.23;;;;;;;;;;5049205;28;20103;-64
2024/01/18 09:39:28;;;;;;;7.30;3.23;;;;;;;;;;5049033;28;20132;-64
2024/01/18 09:41:55;;;;;;;6.17;1.83;;;;;;;;;;5048482;28;20414;-64
2024/01/18 09:44:25;;;;;;;12.97;4.63;;;;;;;;;;5047772;28;20498;-64
2024/01/18 09:46:52;;;;;;;15.97;5.13;;;;;;;;;;5048001;28;20398;-64
2024/01/18 09:49:18;;;;;;;15.67;6.50;;;;;;;;;;5047606;28;20302;-64
2024/01/18 09:51:45;;;;;;;13.73;5.83;;;;;;;;;;5048182;28;20303;-64
2024/01/18 09:54:11;;;;;;;11.43;4.83;;;;;;;;;;5048451;28;20083;-64
2024/01/18 09:56:42;;;;;;;15.00;5.10;;;;;;;;;;5048350;28;20275;-64
2024/01/18 09:59:09;;;;;;;10.73;4.40;;;;;;;;;;5047269;28;20291;-64
2024/01/18 10:01:35;;;;;;;13.70;4.93;;;;;;;;;;5048266;28;20725;-64
2024/01/18 10:04:01;;;;;;;13.27;4.47;;;;;;;;;;5048780;28;20276;-64
2024/01/18 10:06:27;;;;;;;11.53;5.70;;;;;;;;;;5047415;28;20658;-65
2024/01/18 10:08:53;;;;;;;13.20;5.37;;;;;;;;;;5046056;28;20717;-65
2024/01/18 10:11:19;;;;;;;12.90;6.40;;;;;;;;;;5046175;28;20870;-65
2024/01/18 10:13:52;;;;;;;12.27;6.53;;;;;;;;;;5044749;28;20622;-65
2024/01/18 10:16:32;;;;;;;13.40;5.50;;;;;;;;;;5048295;28;20370;-65
2024/01/18 10:19:00;;;;;;;18.90;6.90;;;;;;;;;;5047825;28;20049;-65
2024/01/18 10:21:26;;;;;;;13.73;6.50;;;;;;;;;;5048461;28;20135;-65
2024/01/18 10:23:54;;;;;;;10.67;3.70;;;;;;;;;;5048006;28;20295;-65
2024/01/18 10:26:23;;;;;;;12.20;4.83;;;;;;;;;;5047622;28;20478;-65
2024/01/18 10:28:49;;;;;;;11.73;3.63;;;;;;;;;;5048309;28;20148;-65
2024/01/18 10:31:15;;;;;;;5.10;2.40;;;;;;;;;;5045966;28;20049;-65
2024/01/18 10:33:41;;;;;;;7.23;2.50;;;;;;;;;;5047813;28;20133;-65
2024/01/18 10:36:07;;;;;;;8.33;2.53;;;;;;;;;;5048359;28;20049;-65
2024/01/18 10:38:34;;;;;;;6.03;1.43;;;;;;;;;;5048358;28;20041;-65
2024/01/18 10:41:01;;;;;;;10.13;2.00;;;;;;;;;;5048368;28;20053;-65
2024/01/18 10:43:30;;;;;;;7.47;2.30;;;;;;;;;;5045877;28;20047;-65
2024/01/18 10:45:57;;;;;;;5.30;1.20;;;;;;;;;;5046529;28;20110;-65
2024/01/18 10:48:24;;;;;;;2.17;1.00;;;;;;;;;;5034815;28;20084;-64
2024/01/18 10:50:53;;;;;;;2.27;1.13;;;;;;;;;;5037371;28;20045;-64
2024/01/18 10:53:22;;;;;;;3.27;1.40;;;;;;;;;;5037797;28;20114;-64
2024/01/18 10:55:48;;;;;;;2.87;1.23;;;;;;;;;;5046989;28;20041;-64
2024/01/18 10:58:15;;;;;;;3.97;1.00;;;;;;;;;;5049572;28;20055;-64
2024/01/18 11:00:41;;;;;;;2.60;1.07;;;;;;;;;;5050874;28;20036;-65
2024/01/18 11:03:08;;;;;;;7.90;1.70;;;;;;;;;;5051391;28;20064;-64
2024/01/18 11:05:34;;;;;;;5.17;1.23;;;;;;;;;;5052024;28;20041;-64
2024/01/18 11:08:03;;;;;;;5.07;1.20;;;;;;;;;;5050405;28;20418;-64
2024/01/18 11:10:30;;;;;;;5.53;1.30;;;;;;;;;;5051465;28;20051;-64
2024/01/18 11:12:57;;;;;;;3.67;1.20;;;;;;;;;;5047405;28;20499;-64
2024/01/18 11:15:23;;;;;;;4.63;1.40;;;;;;;;;;5050186;28;20051;-64
2024/01/18 11:17:54;;;;;;;5.20;1.30;;;;;;;;;;5044329;28;20053;-64
2024/01/18 11:20:21;;;;;;;4.93;1.03;;;;;;;;;;5050925;28;20041;-64
2024/01/18 11:22:47;;;;;;;2.93;1.03;;;;;;;;;;5051168;28;20068;-64
2024/01/18 11:25:18;;;;;;;2.57;1.17;;;;;;;;;;5051218;28;20498;-64
2024/01/18 11:27:44;;;;;;;3.70;1.30;;;;;;;;;;5051551;28;20053;-64
2024/01/18 11:30:11;;;;;;;4.97;1.20;;;;;;;;;;5061200;28;20552;-65
2024/01/18 11:32:38;;;;;;;5.43;1.33;;;;;;;;;;5057322;28;20037;-65
2024/01/18 11:35:14;;;;;;;5.53;1.40;;;;;;;;;;5042518;28;20048;-65
2024/01/18 11:37:40;;;;;;;3.90;1.00;;;;;;;;;;5051412;28;20044;-65
2024/01/18 11:40:07;;;;;;;3.10;1.13;;;;;;;;;;5052369;28;20198;-65
2024/01/18 11:42:34;;;;;;;2.83;1.23;;;;;;;;;;5051291;28;20037;-65
2024/01/18 11:45:01;;;;;;;4.27;0.80;;;;;;;;;;5051226;28;20060;-64
2024/01/18 11:47:31;;;;;;;6.47;0.87;;;;;;;;;;5051606;28;20048;-64
2024/01/18 11:49:57;;;;;;;3.80;0.80;;;;;;;;;;5049965;28;20123;-64
2024/01/18 11:52:23;;;;;;;4.83;0.83;;;;;;;;;;5047130;28;20159;-64
2024/01/18 11:54:55;;;;;;;3.97;1.43;;;;;;;;;;5051854;28;20041;-64
2024/01/18 11:57:22;;;;;;;1.43;0.70;;;;;;;;;;5047102;28;20147;-64
2024/01/18 11:59:48;;;;;;;3.30;0.87;;;;;;;;;;5050631;28;20106;-64
2024/01/18 12:02:14;;;;;;;1.57;0.60;;;;;;;;;;5051202;28;20049;-64
2024/01/18 12:04:41;;;;;;;3.13;0.87;;;;;;;;;;5065091;28;20048;-64
2024/01/18 12:07:11;;;;;;;4.43;0.80;;;;;;;;;;5050882;28;20053;-64
2024/01/18 12:09:37;;;;;;;2.57;1.23;;;;;;;;;;5048363;28;20149;-64
2024/01/18 12:12:04;;;;;;;2.47;0.60;;;;;;;;;;5049095;28;20049;-64
2024/01/18 12:14:30;;;;;;;3.00;0.63;;;;;;;;;;5048712;28;20040;-64
2024/01/18 12:16:56;;;;;;;1.63;0.57;;;;;;;;;;5049942;28;20045;-64
2024/01/18 12:19:32;;;;;;;1.30;0.60;;;;;;;;;;5051318;28;20041;-64
2024/01/18 12:22:01;;;;;;;2.13;0.67;;;;;;;;;;5066093;28;20048;-64
2024/01/18 12:24:27;;;;;;;2.53;0.50;;;;;;;;;;5050002;28;20415;-64
2024/01/18 12:26:53;;;;;;;4.27;1.00;;;;;;;;;;5049793;28;20103;-64
2024/01/18 12:29:20;;;;;;;2.33;0.47;;;;;;;;;;5049654;28;20414;-64
2024/01/18 12:31:50;;;;;;;2.73;0.80;;;;;;;;;;5048720;28;20135;-64
2024/01/18 12:34:17;;;;;;;1.23;0.47;;;;;;;;;;5048752;28;20040;-64
2024/01/18 12:36:43;;;;;;;3.17;0.50;;;;;;;;;;5048840;28;20041;-64
2024/01/18 12:39:10;;;;;;;0.90;0.40;;;;;;;;;;5048258;28;20581;-65
2024/01/18 12:41:36;;;;;;;2.73;0.40;;;;;;;;;;5048331;28;20052;-64
2024/01/18 12:44:06;;;;;;;0.97;0.30;;;;;;;;;;5049262;28;20089;-64
2024/01/18 12:46:32;;;;;;;1.00;0.30;;;;;;;;;;5050224;28;20048;-64
2024/01/18 12:48:58;;;;;;;2.87;0.70;;;;;;;;;;5049422;28;20106;-64
2024/01/18 12:51:25;;;;;;;2.27;0.30;;;;;;;;;;5050610;28;20052;-64
2024/01/18 12:53:51;;;;;;;2.43;0.33;;;;;;;;;;5050004;28;20076;-64
2024/01/18 12:56:17;;;;;;;0.80;0.40;;;;;;;;;;5050157;28;20095;-64
2024/01/18 12:58:43;;;;;;;1.43;0.30;;;;;;;;;;5050273;28;20055;-64
2024/01/18 13:01:09;;;;;;;2.63;0.30;;;;;;;;;;5050412;28;20041;-64
2024/01/18 13:03:35;;;;;;;1.27;0.50;;;;;;;;;;5049843;28;20056;-64
2024/01/18 13:06:02;;;;;;;2.60;0.43;;;;;;;;;;5050099;28;20037;-64
2024/01/18 13:08:28;;;;;;;1.70;0.67;;;;;;;;;;5050008;28;20132;-64
2024/01/18 13:10:55;;;;;;;6.00;1.10;;;;;;;;;;5050210;28;20080;-64
2024/01/18 13:13:22;;;;;;;3.07;0.87;;;;;;;;;;5049792;28;20561;-65
2024/01/18 13:15:48;;;;;;;1.03;0.43;;;;;;;;;;5049827;28;20086;-65
2024/01/18 13:18:14;;;;;;;3.83;0.60;;;;;;;;;;5049973;28;20037;-65
2024/01/18 13:20:41;;;;;;;1.40;0.60;;;;;;;;;;5049003;28;20077;-65
2024/01/18 13:23:09;;;;;;;1.60;0.40;;;;;;;;;;5048960;28;20486;-65
2024/01/18 13:25:36;;;;;;;1.43;0.50;;;;;;;;;;5049503;28;20495;-65
2024/01/18 13:28:02;;;;;;;1.67;0.50;;;;;;;;;;5049646;28;20063;-65
2024/01/18 13:30:28;;;;;;;2.43;0.80;;;;;;;;;;5049286;28;20561;-65
2024/01/18 13:32:54;;;;;;;1.43;0.57;;;;;;;;;;5049164;28;20045;-65
2024/01/18 13:35:20;;;;;;;3.07;0.80;;;;;;;;;;5049205;28;20049;-65
2024/01/18 13:37:46;;;;;;;2.67;0.70;;;;;;;;;;5049151;28;20041;-65
2024/01/18 13:40:12;;;;;;;1.77;0.70;;;;;;;;;;5049007;28;20072;-64
2024/01/18 13:42:38;;;;;;;2.77;0.70;;;;;;;;;;5049307;28;20040;-65
2024/01/18 13:45:04;;;;;;;3.67;0.70;;;;;;;;;;5048708;28;20491;-65
2024/01/18 13:47:31;;;;;;;2.30;0.50;;;;;;;;;;5049469;28;20084;-65
2024/01/18 13:49:57;;;;;;;4.43;0.70;;;;;;;;;;5048879;28;20075;-64
2024/01/18 13:52:28;;;;;;;3.33;0.60;;;;;;;;;;5049018;28;20499;-65
2024/01/18 13:54:54;;;;;;;2.63;0.60;;;;;;;;;;5049071;28;20057;-64
2024/01/18 13:57:20;;;;;;;4.30;0.70;;;;;;;;;;5049109;28;20089;-65
2024/01/18 13:59:46;;;;;;;1.90;0.53;;;;;;;;;;5048846;28;20049;-65
2024/01/18 14:02:12;;;;;;;4.33;0.90;;;;;;;;;;5048980;28;20103;-65
2024/01/18 14:04:38;;;;;;;1.13;0.50;;;;;;;;;;5048694;28;20055;-65
2024/01/18 14:07:04;;;;;;;4.23;0.87;;;;;;;;;;5048806;28;20041;-65
2024/01/18 14:09:30;;;;;;;2.33;0.70;;;;;;;;;;5049183;28;20041;-65
2024/01/18 14:11:56;;;;;;;5.13;0.63;;;;;;;;;;5049358;28;20102;-64
2024/01/18 14:14:22;;;;;;;3.33;0.50;;;;;;;;;;5048878;28;20153;-65
2024/01/18 14:16:48;;;;;;;1.97;0.60;;;;;;;;;;5048836;28;20040;-65
2024/01/18 14:19:14;;;;;;;3.90;0.70;;;;;;;;;;5048340;28;20414;-64
2024/01/18 14:21:40;;;;;;;3.73;0.93;;;;;;;;;;5048432;28;20045;-65
2024/01/18 14:24:06;;;;;;;4.60;0.97;;;;;;;;;;5048573;28;20041;-64
2024/01/18 14:26:32;;;;;;;2.50;0.60;;;;;;;;;;5048267;28;20462;-64
2024/01/18 14:28:58;;;;;;;6.53;1.00;;;;;;;;;;5048551;28;20048;-64
2024/01/18 14:31:24;;;;;;;3.53;0.60;;;;;;;;;;5048422;28;20041;-65